createdAt,value
2019-05-30T00:00:26.366Z,100402.84
2019-05-30T00:02:56.692Z,100394.43
2019-05-30T00:05:25.944Z,100400.55
2019-05-30T00:07:56.067Z,100402.25
2019-05-30T00:10:25.541Z,100403.97
2019-05-30T00:12:54.768Z,100397.27
2019-05-30T00:15:23.764Z,100396.77
2019-05-30T00:17:52.801Z,100396.30
2019-05-30T00:20:21.860Z,100397.16
2019-05-30T00:22:50.925Z,100391.80
2019-05-30T00:25:19.958Z,100398.38
2019-05-30T00:27:49.057Z,100402.30
2019-05-30T00:30:24.579Z,100393.84
2019-05-30T00:32:48.961Z,100391.18
2019-05-30T00:35:18.050Z,100398.62
2019-05-30T00:37:47.139Z,100393.66
2019-05-30T00:40:16.145Z,100391.88
2019-05-30T00:42:45.208Z,100393.53
2019-05-30T00:45:20.786Z,100396.09
2019-05-30T00:47:45.175Z,100397.29
2019-05-30T00:50:14.236Z,100395.88
2019-05-30T00:52:43.333Z,100397.48
2019-05-30T00:55:12.508Z,100395.61
2019-05-30T00:57:41.571Z,100403.58
2019-05-30T01:00:10.638Z,100407.52
2019-05-30T01:02:39.670Z,100396.03
2019-05-30T01:05:08.725Z,100397.84
2019-05-30T01:07:37.809Z,100396.05
2019-05-30T01:10:07.609Z,100394.70
2019-05-30T01:12:36.757Z,100394.23
2019-05-30T01:15:07.484Z,100392.91
2019-05-30T01:17:37.735Z,100386.27
2019-05-30T01:20:07.431Z,100384.04
2019-05-30T01:22:36.684Z,100382.63
2019-05-30T01:25:07.650Z,100374.67
2019-05-30T01:27:36.995Z,100379.00
2019-05-30T01:30:07.944Z,100373.20
2019-05-30T01:32:37.095Z,100381.58
2019-05-30T01:35:06.165Z,100378.47
2019-05-30T01:37:35.257Z,100383.32
2019-05-30T01:40:06.344Z,100391.26
2019-05-30T01:42:35.523Z,100390.81
2019-05-30T01:45:04.763Z,100387.78
2019-05-30T01:47:33.904Z,100393.07
2019-05-30T01:50:04.348Z,100389.11
2019-05-30T01:52:33.416Z,100386.98
2019-05-30T01:55:02.857Z,100388.80
2019-05-30T01:57:31.929Z,100378.31
2019-05-30T02:00:00.988Z,100384.12
2019-05-30T02:02:30.073Z,100380.09
2019-05-30T02:04:59.186Z,100379.27
2019-05-30T02:07:28.318Z,100378.84
2019-05-30T02:09:57.407Z,100379.69
2019-05-30T02:12:26.560Z,100372.66
2019-05-30T02:14:55.651Z,100371.81
2019-05-30T02:17:24.816Z,100373.66
2019-05-30T02:19:53.958Z,100363.49
2019-05-30T02:22:23.056Z,100375.83
2019-05-30T02:24:52.226Z,100368.39
2019-05-30T02:27:21.307Z,100369.30
2019-05-30T02:29:50.487Z,100376.80
2019-05-30T02:32:19.515Z,100370.24
2019-05-30T02:34:48.625Z,100371.12
2019-05-30T02:37:17.754Z,100374.19
2019-05-30T02:39:46.818Z,100371.12
2019-05-30T02:42:15.922Z,100377.73
2019-05-30T02:44:44.988Z,100376.52
2019-05-30T02:47:14.113Z,100377.38
2019-05-30T02:49:43.134Z,100381.78
2019-05-30T02:52:13.091Z,100388.42
2019-05-30T02:54:42.328Z,100395.88
2019-05-30T02:57:12.586Z,100388.42
2019-05-30T02:59:42.073Z,100395.05
2019-05-30T03:02:15.173Z,100389.83
2019-05-30T03:04:41.934Z,100395.05
2019-05-30T03:07:12.905Z,100395.88
2019-05-30T03:09:41.840Z,100390.98
2019-05-30T03:12:13.186Z,100389.58
2019-05-30T03:14:41.742Z,100390.13
2019-05-30T03:17:12.597Z,100398.48
2019-05-30T03:19:41.784Z,100398.48
2019-05-30T03:22:13.813Z,100395.42
2019-05-30T03:24:42.781Z,100401.12
2019-05-30T03:27:14.040Z,100397.98
2019-05-30T03:29:42.764Z,100398.91
2019-05-30T03:32:51.433Z,100402.08
2019-05-30T03:34:42.691Z,100399.44
2019-05-30T03:37:23.004Z,100404.28
2019-05-30T03:39:42.642Z,100398.53
2019-05-30T03:42:13.231Z,100405.52
2019-05-30T03:44:42.520Z,100397.66
2019-05-30T03:47:13.808Z,100408.06
2019-05-30T03:49:44.186Z,100400.52
2019-05-30T03:52:16.803Z,100405.30
2019-05-30T03:54:45.452Z,100407.43
2019-05-30T03:57:17.987Z,100413.49
2019-05-30T03:59:55.205Z,100415.17
2019-05-30T04:02:54.639Z,100410.35
2019-05-30T04:05:07.541Z,100421.54
2019-05-30T04:07:40.507Z,100422.80
2019-05-30T04:10:11.268Z,100424.20
2019-05-30T04:13:09.807Z,100425.45
2019-05-30T04:15:39.652Z,100435.20
2019-05-30T04:18:09.709Z,100429.00
2019-05-30T04:20:39.528Z,100434.16
2019-05-30T04:23:10.670Z,100434.56
2019-05-30T04:25:39.450Z,100423.48
2019-05-30T04:28:09.742Z,100423.91
2019-05-30T04:30:38.952Z,100425.64
2019-05-30T04:33:19.355Z,100420.35
2019-05-30T04:35:38.859Z,100428.70
2019-05-30T04:38:08.575Z,100429.50
2019-05-30T04:40:37.674Z,100425.01
2019-05-30T04:43:06.868Z,100436.00
2019-05-30T04:45:35.981Z,100434.68
2019-05-30T04:48:05.217Z,100431.56
2019-05-30T04:50:34.365Z,100429.36
2019-05-30T05:09:09.588Z,100439.78
2019-05-30T05:11:38.732Z,100444.95
2019-05-30T05:14:07.846Z,100440.80
2019-05-30T05:16:37.161Z,100435.33
2019-05-30T05:19:06.359Z,100449.27
2019-05-30T05:21:35.516Z,100435.84
2019-05-30T05:24:04.752Z,100442.34
2019-05-30T05:26:33.854Z,100443.63
2019-05-30T05:29:02.991Z,100439.54
2019-05-30T05:31:32.109Z,100449.19
2019-05-30T05:34:01.218Z,100452.09
2019-05-30T05:36:30.305Z,100454.64
2019-05-30T05:38:59.546Z,100449.16
2019-05-30T05:41:28.749Z,100444.61
2019-05-30T05:43:57.802Z,100450.97
2019-05-30T05:46:26.896Z,100448.39
2019-05-30T05:48:55.958Z,100455.09
2019-05-30T05:51:25.089Z,100456.55
2019-05-30T05:53:54.169Z,100461.38
2019-05-30T05:56:23.254Z,100458.13
2019-05-30T05:58:52.256Z,100461.56
2019-05-30T06:01:21.543Z,100460.53
2019-05-30T06:03:50.682Z,100460.05
2019-05-30T06:06:19.725Z,100467.02
2019-05-30T06:08:48.832Z,100466.58
2019-05-30T06:11:18.625Z,100467.28
2019-05-30T06:13:47.827Z,100473.40
2019-05-30T06:16:17.803Z,100477.86
2019-05-30T06:18:48.939Z,100468.05
2019-05-30T06:21:23.756Z,100469.42
2019-05-30T06:23:52.832Z,100473.40
2019-05-30T06:26:25.899Z,100476.16
2019-05-30T06:28:55.068Z,100475.75
2019-05-30T06:31:24.505Z,100488.47
2019-05-30T06:33:53.635Z,100490.23
2019-05-30T06:36:23.044Z,100487.14
2019-05-30T06:38:52.386Z,100486.67
2019-05-30T06:41:21.604Z,100483.02
2019-05-30T06:43:50.775Z,100485.12
2019-05-30T06:46:20.110Z,100479.59
2019-05-30T06:48:49.306Z,100489.36
2019-05-30T06:51:18.601Z,100508.64
2019-05-30T06:53:48.498Z,100497.20
2019-05-30T06:56:19.004Z,100491.05
2019-05-30T06:58:49.295Z,100496.43
2019-05-30T07:01:25.850Z,100490.80
2019-05-30T07:03:55.470Z,100501.87
2019-05-30T07:06:25.510Z,100494.10
2019-05-30T07:08:56.434Z,100490.23
2019-05-30T07:11:26.783Z,100500.06
2019-05-30T07:13:56.107Z,100505.13
2019-05-30T07:16:25.606Z,100499.23
2019-05-30T07:18:54.863Z,100506.39
2019-05-30T07:21:25.450Z,100509.53
2019-05-30T07:23:54.998Z,100512.66
2019-05-30T07:26:27.713Z,100515.60
2019-05-30T07:29:00.556Z,100515.73
2019-05-30T07:31:30.239Z,100519.49
2019-05-30T07:34:00.134Z,100524.69
2019-05-30T07:36:32.652Z,100537.12
2019-05-30T07:39:02.544Z,100535.95
2019-05-30T07:41:34.866Z,100532.37
2019-05-30T07:44:04.711Z,100527.20
2019-05-30T07:46:37.474Z,100542.18
2019-05-30T07:49:06.811Z,100542.85
2019-05-30T07:51:36.361Z,100544.97
2019-05-30T07:54:08.593Z,100545.22
2019-05-30T07:56:38.109Z,100527.92
2019-05-30T07:59:11.542Z,100529.32
2019-05-30T08:01:40.789Z,100530.44
2019-05-30T08:04:10.011Z,100531.34
2019-05-30T08:06:39.435Z,100523.60
2019-05-30T08:09:10.913Z,100528.65
2019-05-30T08:11:40.253Z,100530.08
2019-05-30T08:14:09.464Z,100529.59
2019-05-30T08:16:38.637Z,100541.75
2019-05-30T08:19:08.636Z,100537.98
2019-05-30T08:21:40.489Z,100527.02
2019-05-30T08:24:09.625Z,100534.92
2019-05-30T08:26:39.665Z,100526.75
2019-05-30T08:29:08.717Z,100521.58
2019-05-30T08:31:38.880Z,100535.59
2019-05-30T08:34:08.016Z,100533.88
2019-05-30T08:36:37.155Z,100525.56
2019-05-30T08:39:07.514Z,100532.13
2019-05-30T08:41:37.356Z,100531.98
2019-05-30T08:44:06.503Z,100532.91
2019-05-30T08:46:44.699Z,100523.28
2019-05-30T08:49:13.770Z,100525.49
2019-05-30T08:51:42.964Z,100531.82
2019-05-30T08:54:14.148Z,100526.59
2019-05-30T08:56:43.308Z,100531.47
2019-05-30T08:59:12.411Z,100524.44
2019-05-30T09:01:42.155Z,100525.71
2019-05-30T09:04:11.363Z,100524.19
2019-05-30T09:06:40.480Z,100522.31
2019-05-30T09:09:09.611Z,100537.50
2019-05-30T09:11:39.317Z,100528.17
2019-05-30T09:14:09.461Z,100520.22
2019-05-30T09:16:38.734Z,100515.83
2019-05-30T09:19:07.765Z,100518.24
2019-05-30T09:21:38.200Z,100519.83
2019-05-30T09:24:07.774Z,100513.52
2019-05-30T09:26:38.522Z,100510.80
2019-05-30T09:29:07.966Z,100523.88
2019-05-30T09:31:38.086Z,100520.53
2019-05-30T09:34:07.924Z,100511.98
2019-05-30T09:36:36.994Z,100519.56
2019-05-30T09:39:07.543Z,100516.41
2019-05-30T09:41:36.663Z,100524.97
2019-05-30T09:44:06.185Z,100521.20
2019-05-30T09:46:35.349Z,100521.58
2019-05-30T09:49:04.409Z,100538.23
2019-05-30T09:51:33.548Z,100526.48
2019-05-30T09:54:02.638Z,100534.75
2019-05-30T09:56:31.697Z,100536.30
2019-05-30T09:59:00.847Z,100550.30
2019-05-30T10:01:29.883Z,100538.91
2019-05-30T10:03:59.017Z,100533.05
2019-05-30T10:06:29.889Z,100540.02
2019-05-30T10:08:58.912Z,100550.81
2019-05-30T10:11:27.992Z,100557.20
2019-05-30T10:13:57.161Z,100554.86
2019-05-30T10:16:26.294Z,100564.55
2019-05-30T10:18:55.453Z,100557.80
2019-05-30T10:21:24.575Z,100553.30
2019-05-30T10:23:53.809Z,100547.23
2019-05-30T10:26:22.965Z,100545.20
2019-05-30T10:28:53.242Z,100546.02
2019-05-30T10:31:22.383Z,100540.77
2019-05-30T10:33:52.893Z,100537.43
2019-05-30T10:36:22.187Z,100538.91
2019-05-30T10:38:52.186Z,100532.51
2019-05-30T10:41:21.369Z,100538.58
2019-05-30T10:43:51.160Z,100548.80
2019-05-30T10:46:20.301Z,100556.67
2019-05-30T10:48:50.759Z,100553.47
2019-05-30T10:51:21.262Z,100565.14
2019-05-30T10:53:50.933Z,100562.53
2019-05-30T10:56:21.387Z,100565.30
2019-05-30T10:58:50.809Z,100560.25
2019-05-30T11:01:19.949Z,100550.95
2019-05-30T11:03:50.292Z,100555.22
2019-05-30T11:06:26.781Z,100555.20
2019-05-30T11:08:56.882Z,100560.18
2019-05-30T11:11:25.989Z,100562.72
2019-05-30T11:13:55.399Z,100564.09
2019-05-30T11:16:24.541Z,100560.55
2019-05-30T11:18:54.585Z,100562.19
2019-05-30T11:21:24.408Z,100558.16
2019-05-30T11:23:54.439Z,100555.03
2019-05-30T11:26:23.479Z,100555.02
2019-05-30T11:28:52.686Z,100559.27
2019-05-30T11:31:21.902Z,100561.83
2019-05-30T11:33:50.959Z,100563.58
2019-05-30T11:36:20.017Z,100563.89
2019-05-30T11:38:49.169Z,100558.87
2019-05-30T11:41:18.218Z,100564.61
2019-05-30T11:43:51.439Z,100559.22
2019-05-30T11:46:20.675Z,100553.20
2019-05-30T11:48:49.766Z,100561.91
2019-05-30T11:51:18.889Z,100553.11
2019-05-30T11:53:47.980Z,100557.97
2019-05-30T11:56:17.100Z,100556.17
2019-05-30T11:58:46.281Z,100563.30
2019-05-30T12:01:16.199Z,100566.85
2019-05-30T12:03:45.996Z,100563.78
2019-05-30T12:06:15.335Z,100564.28
2019-05-30T12:08:44.701Z,100562.59
2019-05-30T12:11:13.853Z,100564.27
2019-05-30T12:13:42.855Z,100570.99
2019-05-30T12:16:12.099Z,100563.81
2019-05-30T12:18:41.451Z,100569.59
2019-05-30T12:21:10.631Z,100575.63
2019-05-30T12:23:39.921Z,100574.80
2019-05-30T12:26:09.123Z,100576.81
2019-05-30T12:28:38.193Z,100575.41
2019-05-30T12:31:07.473Z,100574.06
2019-05-30T12:33:36.623Z,100572.84
2019-05-30T12:36:05.805Z,100569.45
2019-05-30T12:38:34.957Z,100569.05
2019-05-30T12:41:04.171Z,100573.86
2019-05-30T12:43:59.310Z,100574.76
2019-05-30T12:46:28.506Z,100577.03
2019-05-30T12:48:57.684Z,100576.74
2019-05-30T12:51:26.810Z,100566.77
2019-05-30T12:53:56.344Z,100575.21
2019-05-30T12:56:25.453Z,100575.70
2019-05-30T12:58:54.620Z,100576.01
2019-05-30T13:01:27.280Z,100580.83
2019-05-30T13:03:54.915Z,100583.36
2019-05-30T13:06:23.990Z,100585.57
2019-05-30T13:08:53.096Z,100584.69
2019-05-30T13:11:22.190Z,100580.69
2019-05-30T13:13:51.359Z,100577.23
2019-05-30T13:16:20.382Z,100586.02
2019-05-30T13:18:49.698Z,100585.09
2019-05-30T13:21:18.915Z,100589.63
2019-05-30T13:23:48.000Z,100589.88
2019-05-30T13:26:17.114Z,100590.08
2019-05-30T13:28:46.241Z,100585.77
2019-05-30T13:31:15.331Z,100586.64
2019-05-30T13:33:44.427Z,100591.11
2019-05-30T13:36:13.773Z,100595.18
2019-05-30T13:38:42.755Z,100596.60
2019-05-30T13:41:11.844Z,100598.53
2019-05-30T13:43:41.003Z,100596.56
2019-05-30T13:46:10.014Z,100596.16
2019-05-30T13:48:39.108Z,100608.16
2019-05-30T13:51:09.121Z,100615.37
2019-05-30T13:53:38.216Z,100604.89
2019-05-30T13:56:07.798Z,100614.23
2019-05-30T13:58:36.963Z,100615.21
2019-05-30T14:01:11.422Z,100613.87
2019-05-30T14:03:36.799Z,100612.94
2019-05-30T14:06:06.253Z,100613.42
2019-05-30T14:08:41.494Z,100613.27
2019-05-30T14:11:06.785Z,100617.41
2019-05-30T14:13:35.965Z,100618.00
2019-05-30T14:16:05.035Z,100626.71
2019-05-30T14:18:35.308Z,100627.48
2019-05-30T14:21:05.173Z,100624.30
2019-05-30T14:23:34.270Z,100623.69
2019-05-30T14:26:03.299Z,100626.87
2019-05-30T14:28:32.550Z,100623.86
2019-05-30T14:31:03.393Z,100624.27
2019-05-30T14:33:32.435Z,100620.80
2019-05-30T14:36:04.573Z,100625.20
2019-05-30T14:38:32.332Z,100617.55
2019-05-30T14:41:02.818Z,100623.16
2019-05-30T14:43:32.131Z,100630.11
2019-05-30T14:46:01.330Z,100629.18
2019-05-30T14:48:30.501Z,100631.71
2019-05-30T14:50:59.629Z,100629.27
2019-05-30T14:53:28.702Z,100638.80
2019-05-30T14:55:57.731Z,100636.14
2019-05-30T14:58:26.736Z,100633.82
2019-05-30T15:00:55.900Z,100629.64
2019-05-30T15:03:24.949Z,100631.92
2019-05-30T15:05:53.985Z,100622.38
2019-05-30T15:08:23.069Z,100625.97
2019-05-30T15:10:52.181Z,100619.91
2019-05-30T15:13:21.231Z,100622.55
2019-05-30T15:15:50.596Z,100625.67
2019-05-30T15:18:19.672Z,100617.38
2019-05-30T15:20:49.640Z,100620.73
2019-05-30T15:23:18.802Z,100616.42
2019-05-30T15:25:47.969Z,100616.70
2019-05-30T15:28:17.292Z,100609.59
2019-05-30T15:30:46.778Z,100601.55
2019-05-30T15:33:16.607Z,100604.88
2019-05-30T15:35:46.042Z,100617.98
2019-05-30T15:38:16.862Z,100616.52
2019-05-30T15:40:46.532Z,100608.72
2019-05-30T15:43:15.862Z,100613.19
2019-05-30T15:45:45.514Z,100610.21
2019-05-30T15:48:14.702Z,100618.20
2019-05-30T15:50:44.214Z,100613.25
2019-05-30T15:53:13.402Z,100617.42
2019-05-30T15:55:42.719Z,100612.30
2019-05-30T15:58:11.905Z,100619.09
2019-05-30T16:00:41.158Z,100611.47
2019-05-30T16:03:10.513Z,100609.06
2019-05-30T16:05:39.669Z,100607.30
2019-05-30T16:08:08.812Z,100604.18
2019-05-30T16:10:37.934Z,100602.34
2019-05-30T16:13:07.102Z,100602.73
2019-05-30T16:15:36.409Z,100609.08
2019-05-30T16:18:05.594Z,100606.86
2019-05-30T16:20:38.658Z,100606.34
2019-05-30T16:23:08.762Z,100608.08
2019-05-30T16:25:40.778Z,100606.08
2019-05-30T16:28:15.713Z,100597.67
2019-05-30T16:30:47.377Z,100597.05
2019-05-30T16:33:18.023Z,100598.11
2019-05-30T16:35:47.657Z,100597.05
2019-05-30T16:38:27.271Z,100610.88
2019-05-30T16:40:56.303Z,100605.01
2019-05-30T16:43:26.606Z,100600.30
2019-05-30T16:45:56.491Z,100600.30
2019-05-30T16:48:26.716Z,100596.34
2019-05-30T16:50:56.233Z,100598.84
2019-05-30T16:53:25.952Z,100593.33
2019-05-30T16:56:00.581Z,100591.98
2019-05-30T16:58:30.120Z,100589.20
2019-05-30T17:01:02.101Z,100596.16
2019-05-30T17:03:31.262Z,100590.40
2019-05-30T17:06:00.619Z,100597.89
2019-05-30T17:08:30.169Z,100592.09
2019-05-30T17:11:02.850Z,100598.80
2019-05-30T17:13:41.239Z,100591.12
2019-05-30T17:16:24.166Z,100587.47
2019-05-30T17:18:54.049Z,100587.34
2019-05-30T17:21:27.611Z,100586.35
2019-05-30T17:23:59.532Z,100587.89
2019-05-30T17:26:30.352Z,100587.21
2019-05-30T17:29:00.080Z,100577.48
2019-05-30T17:31:32.170Z,100585.87
2019-05-30T17:34:03.476Z,100580.14
2019-05-30T17:36:33.152Z,100579.35
2019-05-30T17:39:05.526Z,100574.16
2019-05-30T17:41:34.824Z,100579.10
2019-05-30T17:44:04.449Z,100575.16
2019-05-30T17:46:33.544Z,100579.22
2019-05-30T17:49:02.935Z,100582.28
2019-05-30T17:51:32.009Z,100582.77
2019-05-30T17:54:01.100Z,100585.42
2019-05-30T17:56:30.318Z,100592.83
2019-05-30T17:59:00.155Z,100591.41
2019-05-30T18:01:30.432Z,100589.77
2019-05-30T18:03:59.595Z,100588.75
2019-05-30T18:06:28.743Z,100590.48
2019-05-30T18:08:57.787Z,100594.62
2019-05-30T18:11:26.981Z,100590.42
2019-05-30T18:13:56.143Z,100589.23
2019-05-30T18:16:25.311Z,100598.62
2019-05-30T18:18:54.345Z,100590.78
2019-05-30T18:21:23.469Z,100605.59
2019-05-30T18:23:52.525Z,100598.58
2019-05-30T18:26:21.669Z,100599.97
2019-05-30T18:28:50.761Z,100592.91
2019-05-30T18:31:25.882Z,100594.52
2019-05-30T18:33:54.990Z,100589.38
2019-05-30T18:36:24.387Z,100596.23
2019-05-30T18:38:53.431Z,100589.96
2019-05-30T18:41:22.704Z,100598.59
2019-05-30T18:43:52.151Z,100598.03
2019-05-30T18:46:21.320Z,100598.81
2019-05-30T18:48:50.354Z,100600.06
2019-05-30T18:51:19.457Z,100600.69
2019-05-30T18:53:48.560Z,100598.16
2019-05-30T18:56:17.649Z,100606.30
2019-05-30T18:58:46.688Z,100607.77
2019-05-30T19:01:15.824Z,100603.37
2019-05-30T19:03:44.962Z,100603.95
2019-05-30T19:06:14.116Z,100607.98
2019-05-30T19:08:43.252Z,100607.14
2019-05-30T19:11:26.593Z,100611.59
2019-05-30T19:13:43.085Z,100612.91
2019-05-30T19:16:12.148Z,100613.84
2019-05-30T19:18:41.186Z,100614.30
2019-05-30T19:21:10.372Z,100621.44
2019-05-30T19:23:39.869Z,100622.77
2019-05-30T19:26:08.962Z,100621.48
2019-05-30T19:28:38.374Z,100625.08
2019-05-30T19:31:07.888Z,100630.05
2019-05-30T19:33:37.217Z,100631.78
2019-05-30T19:36:06.289Z,100638.88
2019-05-30T19:38:35.520Z,100640.60
2019-05-30T19:41:04.686Z,100639.67
2019-05-30T19:43:33.852Z,100648.64
2019-05-30T19:46:02.882Z,100648.69
2019-05-30T19:48:32.312Z,100647.35
2019-05-30T19:51:01.440Z,100651.02
2019-05-30T19:53:30.851Z,100654.18
2019-05-30T19:55:59.967Z,100656.44
2019-05-30T19:58:29.530Z,100659.23
2019-05-30T20:00:59.256Z,100654.75
2019-05-30T20:03:38.341Z,100661.37
2019-05-30T20:05:59.439Z,100659.59
2019-05-30T20:08:44.863Z,100659.11
2019-05-30T20:10:59.311Z,100654.66
2019-05-30T20:13:28.550Z,100654.66
2019-05-30T20:15:57.568Z,100653.42
2019-05-30T20:18:26.598Z,100654.08
2019-05-30T20:20:57.819Z,100658.59
2019-05-30T20:23:26.523Z,100653.36
2019-05-30T20:25:55.877Z,100655.22
2019-05-30T20:28:24.936Z,100653.53
2019-05-30T20:30:53.958Z,100659.46
2019-05-30T20:33:22.969Z,100661.85
2019-05-30T20:35:51.999Z,100668.22
2019-05-30T20:38:21.052Z,100665.73
2019-05-30T20:40:50.113Z,100672.95
2019-05-30T20:43:19.144Z,100676.25
2019-05-30T20:45:49.987Z,100676.91
2019-05-30T20:48:19.282Z,100683.23
2019-05-30T20:50:48.445Z,100681.14
2019-05-30T20:53:20.445Z,100682.17
2019-05-30T20:55:48.754Z,100684.52
2019-05-30T20:58:18.264Z,100684.63
2019-05-30T21:00:47.340Z,100684.91
2019-05-30T21:03:16.408Z,100692.52
2019-05-30T21:05:46.033Z,100690.01
2019-05-30T21:08:15.432Z,100697.17
2019-05-30T21:10:44.608Z,100695.52
2019-05-30T21:13:13.716Z,100698.73
2019-05-30T21:15:43.653Z,100695.30
2019-05-30T21:18:12.730Z,100699.36
2019-05-30T21:20:42.154Z,100705.64
2019-05-30T21:23:12.027Z,100704.45
2019-05-30T21:25:41.167Z,100712.98
2019-05-30T21:28:10.192Z,100711.87
2019-05-30T21:30:39.240Z,100712.72
2019-05-30T21:33:08.281Z,100714.20
2019-05-30T21:35:37.603Z,100707.59
2019-05-30T21:38:06.764Z,100712.20
2019-05-30T21:40:35.923Z,100720.61
2019-05-30T21:43:17.887Z,100717.95
2019-05-30T21:45:35.704Z,100719.39
2019-05-30T21:48:04.801Z,100719.39
2019-05-30T21:50:33.823Z,100721.64
2019-05-30T21:53:02.883Z,100723.48
2019-05-30T21:55:31.944Z,100723.99
2019-05-30T21:58:01.002Z,100723.21
2019-05-30T22:01:17.180Z,100727.70
2019-05-30T22:03:46.715Z,100722.05
2019-05-30T22:06:16.997Z,100722.05
2019-05-30T22:08:47.132Z,100718.55
2019-05-30T22:11:16.292Z,100721.24
2019-05-30T22:13:45.532Z,100720.83
2019-05-30T22:16:14.588Z,100718.63
2019-05-30T22:18:44.118Z,100725.70
2019-05-30T22:21:13.242Z,100727.06
2019-05-30T22:23:42.287Z,100720.87
2019-05-30T22:26:11.330Z,100727.91
2019-05-30T22:28:40.346Z,100722.98
2019-05-30T22:31:09.453Z,100723.80
2019-05-30T22:33:38.536Z,100723.31
2019-05-30T22:36:07.644Z,100715.75
2019-05-30T22:38:36.664Z,100716.61
2019-05-30T22:41:05.713Z,100717.94
2019-05-30T22:43:34.745Z,100723.80
2019-05-30T22:46:03.795Z,100726.55
2019-05-30T22:48:32.789Z,100725.84
2019-05-30T22:51:01.821Z,100721.41
2019-05-30T22:53:30.932Z,100726.18
2019-05-30T22:56:00.048Z,100722.13
2019-05-30T22:58:29.156Z,100719.77
2019-05-30T23:00:58.194Z,100723.31
2019-05-30T23:03:27.332Z,100720.05
2019-05-30T23:05:57.552Z,100718.68
2019-05-30T23:08:26.649Z,100721.27
2019-05-30T23:10:55.853Z,100719.91
2019-05-30T23:13:37.759Z,100717.66
2019-05-30T23:15:57.078Z,100714.55
2019-05-30T23:18:26.280Z,100730.45
2019-05-30T23:20:55.310Z,100709.68
2019-05-30T23:23:24.437Z,100714.99
2019-05-30T23:25:53.517Z,100709.64
2019-05-30T23:28:22.658Z,100712.64
2019-05-30T23:30:52.022Z,100704.73
2019-05-30T23:33:21.045Z,100725.92
2019-05-30T23:35:50.320Z,100701.53
2019-05-30T23:38:19.349Z,100709.80
2019-05-30T23:40:48.957Z,100713.27
2019-05-30T23:43:18.019Z,100712.76
2019-05-30T23:45:47.119Z,100715.78
2019-05-30T23:48:16.141Z,100710.88
2019-05-30T23:50:45.160Z,100711.36
2019-05-30T23:53:14.233Z,100713.50
2019-05-30T23:55:43.311Z,100713.53
2019-05-30T23:58:12.399Z,100705.12
